Tamora, Nebraska
Current Conditions -  °F | °C
As of 2:11 AM on Sunday 21 Dec 2014 (Local Time) from KLNK Reporting Station
Haze Haze  
Wind Chill: 27°   Ceiling: 900
Heat Index: 34°   Visibility: 6mi
Dew Point: 33°   Wind: 8mph
Humidity: 96%   Direction: 170°S
Pressure: 29.97"   Gusts: NA
Location:  40.8874°N, 97.126°W
Report Text: KLNK 210811Z AUTO 17007KT 6SM BR OVC009 01/01 A2997 RMK AO2 T00110006
Loading
Personal Weather Stations






























Interactive Weather Map New forecast layout! Learn more

10-Day Weather Forecast

Advertisements
Track Severe Weather on mobile